METAR Data
IDs: Format: Raw Decoded Include TAF

Data at: 0111 UTC 15 Aug 2020

LKPR 150106Z VRB02KT 2500 1500SE BR BKN002 BKN003 18/18 Q1014 RMK REG QNH 1012

TAF LKPR 142300Z 1500/1606 03004KT 1200 BR BKN002
  TEMPO 1500/1507 VRB02KT 0700 FG
  PROB30
  TEMPO 1500/1506 0400 FG BKN001
  BECMG 1507/1509 9999 SCT040
  TEMPO 1509/1522 5000 SHRA SCT030TCU
  PROB30
  TEMPO 1509/1521 2000 TSRA SCT020CB
  BECMG 1522/1600 2000 BR SCT003
  TEMPO 1600/1606 VRB02KT 1200 BR BKN003
  PROB30
  TEMPO 1600/1606 0500 FG BKN002